sensor_id;sensor_type;location;lat;lon;timestamp;temperature;humidity
56137;DHT22;42008;52.934;5.884;2022-07-10T00:00:30;13.40;1.00
56137;DHT22;42008;52.934;5.884;2022-07-10T00:02:56;13.20;1.00
56137;DHT22;42008;52.934;5.884;2022-07-10T00:05:23;14.00;1.00
56137;DHT22;42008;52.934;5.884;2022-07-10T00:07:49;13.40;1.00
56137;DHT22;42008;52.934;5.884;2022-07-10T00:10:19;13.40;1.00
56137;DHT22;42008;52.934;5.884;2022-07-10T00:12:46;13.60;1.00
56137;DHT22;42008;52.934;5.884;2022-07-10T00:15:12;13.40;1.00
56137;DHT22;42008;52.934;5.884;2022-07-10T00:17:38;13.10;1.00
56137;DHT22;42008;52.934;5.884;2022-07-10T00:20:05;13.10;1.00
56137;DHT22;42008;52.934;5.884;2022-07-10T00:22:33;13.90;1.00
56137;DHT22;42008;52.934;5.884;2022-07-10T00:25:01;13.50;1.00
56137;DHT22;42008;52.934;5.884;2022-07-10T00:27:26;13.90;1.00
56137;DHT22;42008;52.934;5.884;2022-07-10T00:29:52;13.50;1.00
56137;DHT22;42008;52.934;5.884;2022-07-10T00:32:17;13.30;1.00
56137;DHT22;42008;52.934;5.884;2022-07-10T00:34:43;13.30;1.00
56137;DHT22;42008;52.934;5.884;2022-07-10T00:37:08;13.60;1.00
56137;DHT22;42008;52.934;5.884;2022-07-10T00:39:34;13.60;1.00
56137;DHT22;42008;52.934;5.884;2022-07-10T00:42:11;13.10;1.00
56137;DHT22;42008;52.934;5.884;2022-07-10T00:44:37;13.80;1.00
56137;DHT22;42008;52.934;5.884;2022-07-10T00:47:04;13.60;1.00
56137;DHT22;42008;52.934;5.884;2022-07-10T00:49:30;13.80;1.00
56137;DHT22;42008;52.934;5.884;2022-07-10T00:51:55;13.20;1.00
56137;DHT22;42008;52.934;5.884;2022-07-10T00:54:23;13.40;1.00
56137;DHT22;42008;52.934;5.884;2022-07-10T00:56:48;13.20;1.00
56137;DHT22;42008;52.934;5.884;2022-07-10T00:59:14;13.80;1.00
56137;DHT22;42008;52.934;5.884;2022-07-10T01:01:39;13.70;1.00
56137;DHT22;42008;52.934;5.884;2022-07-10T01:04:05;14.80;1.00
56137;DHT22;42008;52.934;5.884;2022-07-10T01:06:31;13.40;1.00
56137;DHT22;42008;52.934;5.884;2022-07-10T01:08:58;13.70;1.00
56137;DHT22;42008;52.934;5.884;2022-07-10T01:11:23;14.90;1.00
56137;DHT22;42008;52.934;5.884;2022-07-10T01:13:49;13.60;1.00
56137;DHT22;42008;52.934;5.884;2022-07-10T01:16:15;14.90;1.00
56137;DHT22;42008;52.934;5.884;2022-07-10T01:18:41;14.00;1.00
56137;DHT22;42008;52.934;5.884;2022-07-10T01:21:23;13.80;1.00
56137;DHT22;42008;52.934;5.884;2022-07-10T01:23:49;13.70;1.00
56137;DHT22;42008;52.934;5.884;2022-07-10T01:26:15;15.10;1.00
56137;DHT22;42008;52.934;5.884;2022-07-10T01:28:41;13.70;1.00
56137;DHT22;42008;52.934;5.884;2022-07-10T01:31:06;13.80;1.00
56137;DHT22;42008;52.934;5.884;2022-07-10T01:33:32;13.50;1.00
56137;DHT22;42008;52.934;5.884;2022-07-10T01:35:57;14.70;1.00
56137;DHT22;42008;52.934;5.884;2022-07-10T01:38:24;13.60;1.00
56137;DHT22;42008;52.934;5.884;2022-07-10T01:40:49;13.40;1.00
56137;DHT22;42008;52.934;5.884;2022-07-10T01:43:15;13.30;1.00
56137;DHT22;42008;52.934;5.884;2022-07-10T01:45:40;13.60;1.00
56137;DHT22;42008;52.934;5.884;2022-07-10T01:48:06;14.80;1.00
56137;DHT22;42008;52.934;5.884;2022-07-10T01:50:31;13.30;1.00
56137;DHT22;42008;52.934;5.884;2022-07-10T01:52:57;14.30;1.00
56137;DHT22;42008;52.934;5.884;2022-07-10T01:55:23;13.70;1.00
56137;DHT22;42008;52.934;5.884;2022-07-10T01:57:48;13.70;1.00
56137;DHT22;42008;52.934;5.884;2022-07-10T02:00:14;13.50;1.00
56137;DHT22;42008;52.934;5.884;2022-07-10T02:02:39;13.30;1.00
56137;DHT22;42008;52.934;5.884;2022-07-10T02:05:05;13.20;1.00
56137;DHT22;42008;52.934;5.884;2022-07-10T02:07:31;14.30;1.00
56137;DHT22;42008;52.934;5.884;2022-07-10T02:09:57;14.00;1.00
56137;DHT22;42008;52.934;5.884;2022-07-10T02:12:22;13.30;1.00
56137;DHT22;42008;52.934;5.884;2022-07-10T02:14:48;13.20;1.00
56137;DHT22;42008;52.934;5.884;2022-07-10T02:17:14;14.40;1.00
56137;DHT22;42008;52.934;5.884;2022-07-10T02:19:41;14.70;1.00
56137;DHT22;42008;52.934;5.884;2022-07-10T02:22:07;14.40;1.00
56137;DHT22;42008;52.934;5.884;2022-07-10T02:24:33;13.80;1.00
56137;DHT22;42008;52.934;5.884;2022-07-10T02:26:58;13.60;1.00
56137;DHT22;42008;52.934;5.884;2022-07-10T02:29:24;13.70;1.00
56137;DHT22;42008;52.934;5.884;2022-07-10T02:31:50;14.90;1.00
56137;DHT22;42008;52.934;5.884;2022-07-10T02:34:15;13.60;1.00
56137;DHT22;42008;52.934;5.884;2022-07-10T02:36:41;13.70;1.00
56137;DHT22;42008;52.934;5.884;2022-07-10T02:39:08;13.70;1.00
56137;DHT22;42008;52.934;5.884;2022-07-10T02:41:34;15.20;1.00
56137;DHT22;42008;52.934;5.884;2022-07-10T02:44:01;13.60;1.00
56137;DHT22;42008;52.934;5.884;2022-07-10T02:46:27;15.20;1.00
56137;DHT22;42008;52.934;5.884;2022-07-10T02:48:52;14.50;1.00
56137;DHT22;42008;52.934;5.884;2022-07-10T02:51:18;14.00;1.00
56137;DHT22;42008;52.934;5.884;2022-07-10T02:53:43;15.20;1.00
56137;DHT22;42008;52.934;5.884;2022-07-10T02:56:09;15.00;1.00
56137;DHT22;42008;52.934;5.884;2022-07-10T02:58:35;13.70;1.00
56137;DHT22;42008;52.934;5.884;2022-07-10T03:01:02;13.70;1.00
56137;DHT22;42008;52.934;5.884;2022-07-10T03:03:28;14.70;1.00
56137;DHT22;42008;52.934;5.884;2022-07-10T03:05:53;14.90;1.00
56137;DHT22;42008;52.934;5.884;2022-07-10T03:08:19;13.40;1.00
56137;DHT22;42008;52.934;5.884;2022-07-10T03:10:45;14.10;1.00
56137;DHT22;42008;52.934;5.884;2022-07-10T03:13:10;13.40;1.00
56137;DHT22;42008;52.934;5.884;2022-07-10T03:15:36;13.60;1.00
56137;DHT22;42008;52.934;5.884;2022-07-10T03:18:01;14.10;1.00
56137;DHT22;42008;52.934;5.884;2022-07-10T03:20:27;14.90;1.00
56137;DHT22;42008;52.934;5.884;2022-07-10T03:22:52;14.30;1.00
56137;DHT22;42008;52.934;5.884;2022-07-10T03:25:18;13.60;1.00
56137;DHT22;42008;52.934;5.884;2022-07-10T03:27:44;15.20;1.00
56137;DHT22;42008;52.934;5.884;2022-07-10T03:30:10;13.80;1.00
56137;DHT22;42008;52.934;5.884;2022-07-10T03:32:35;14.50;1.00
56137;DHT22;42008;52.934;5.884;2022-07-10T03:35:01;14.70;1.00
56137;DHT22;42008;52.934;5.884;2022-07-10T03:37:27;14.00;1.00
56137;DHT22;42008;52.934;5.884;2022-07-10T03:39:53;14.40;1.00
56137;DHT22;42008;52.934;5.884;2022-07-10T03:42:19;13.50;1.00
56137;DHT22;42008;52.934;5.884;2022-07-10T03:44:45;13.70;1.00
56137;DHT22;42008;52.934;5.884;2022-07-10T03:47:11;14.90;1.00
56137;DHT22;42008;52.934;5.884;2022-07-10T03:49:36;15.30;1.00
56137;DHT22;42008;52.934;5.884;2022-07-10T03:52:04;13.30;1.00
56137;DHT22;42008;52.934;5.884;2022-07-10T03:54:30;14.60;1.00
56137;DHT22;42008;52.934;5.884;2022-07-10T03:56:57;15.10;1.00
56137;DHT22;42008;52.934;5.884;2022-07-10T03:59:41;14.80;1.00
56137;DHT22;42008;52.934;5.884;2022-07-10T04:02:07;14.80;1.00
56137;DHT22;42008;52.934;5.884;2022-07-10T04:04:33;14.30;1.00
56137;DHT22;42008;52.934;5.884;2022-07-10T04:06:58;15.20;1.00
56137;DHT22;42008;52.934;5.884;2022-07-10T04:09:24;13.80;1.00
56137;DHT22;42008;52.934;5.884;2022-07-10T04:11:50;15.20;1.00
56137;DHT22;42008;52.934;5.884;2022-07-10T04:14:15;15.00;1.00
56137;DHT22;42008;52.934;5.884;2022-07-10T04:16:41;14.90;1.00
56137;DHT22;42008;52.934;5.884;2022-07-10T04:19:07;13.70;1.00
56137;DHT22;42008;52.934;5.884;2022-07-10T04:21:32;15.30;1.00
56137;DHT22;42008;52.934;5.884;2022-07-10T04:23:58;15.00;1.00
56137;DHT22;42008;52.934;5.884;2022-07-10T04:26:23;13.60;1.00
56137;DHT22;42008;52.934;5.884;2022-07-10T04:28:49;14.50;1.00
56137;DHT22;42008;52.934;5.884;2022-07-10T04:31:15;13.80;1.00
56137;DHT22;42008;52.934;5.884;2022-07-10T04:33:40;14.90;1.00
56137;DHT22;42008;52.934;5.884;2022-07-10T04:36:06;14.80;1.00
56137;DHT22;42008;52.934;5.884;2022-07-10T04:38:31;14.10;1.00
56137;DHT22;42008;52.934;5.884;2022-07-10T04:40:58;15.00;1.00
56137;DHT22;42008;52.934;5.884;2022-07-10T04:43:23;14.60;1.00
56137;DHT22;42008;52.934;5.884;2022-07-10T04:45:49;14.30;1.00
56137;DHT22;42008;52.934;5.884;2022-07-10T04:48:14;15.10;1.00
56137;DHT22;42008;52.934;5.884;2022-07-10T04:50:40;15.30;1.00
56137;DHT22;42008;52.934;5.884;2022-07-10T04:53:06;15.40;11.90
56137;DHT22;42008;52.934;5.884;2022-07-10T04:55:31;14.00;12.80
56137;DHT22;42008;52.934;5.884;2022-07-10T04:57:57;15.30;14.70
56137;DHT22;42008;52.934;5.884;2022-07-10T05:00:23;15.40;17.80
56137;DHT22;42008;52.934;5.884;2022-07-10T05:02:49;14.80;20.00
56137;DHT22;42008;52.934;5.884;2022-07-10T05:05:14;15.10;26.50
56137;DHT22;42008;52.934;5.884;2022-07-10T05:07:40;16.20;27.80
56137;DHT22;42008;52.934;5.884;2022-07-10T05:10:06;15.20;30.10
56137;DHT22;42008;52.934;5.884;2022-07-10T05:12:31;14.40;29.90
56137;DHT22;42008;52.934;5.884;2022-07-10T05:14:57;15.40;32.50
56137;DHT22;42008;52.934;5.884;2022-07-10T05:17:25;15.80;36.70
56137;DHT22;42008;52.934;5.884;2022-07-10T05:19:52;14.60;37.50
56137;DHT22;42008;52.934;5.884;2022-07-10T05:22:19;14.80;34.70
56137;DHT22;42008;52.934;5.884;2022-07-10T05:24:44;15.70;37.10
56137;DHT22;42008;52.934;5.884;2022-07-10T05:27:10;14.00;33.60
56137;DHT22;42008;52.934;5.884;2022-07-10T05:29:35;15.50;32.00
56137;DHT22;42008;52.934;5.884;2022-07-10T05:32:01;14.00;32.90
56137;DHT22;42008;52.934;5.884;2022-07-10T05:34:27;14.90;31.60
56137;DHT22;42008;52.934;5.884;2022-07-10T05:36:52;15.80;34.50
56137;DHT22;42008;52.934;5.884;2022-07-10T05:39:18;15.10;22.80
56137;DHT22;42008;52.934;5.884;2022-07-10T05:41:43;15.10;46.40
56137;DHT22;42008;52.934;5.884;2022-07-10T05:44:09;15.00;68.10
56137;DHT22;42008;52.934;5.884;2022-07-10T05:46:34;15.10;89.30
56137;DHT22;42008;52.934;5.884;2022-07-10T05:49:00;15.10;89.40
56137;DHT22;42008;52.934;5.884;2022-07-10T05:51:26;15.20;84.30
56137;DHT22;42008;52.934;5.884;2022-07-10T05:53:52;15.10;75.30
56137;DHT22;42008;52.934;5.884;2022-07-10T05:56:17;14.90;62.50
56137;DHT22;42008;52.934;5.884;2022-07-10T05:58:43;15.30;47.40
56137;DHT22;42008;52.934;5.884;2022-07-10T06:01:08;15.60;33.90
56137;DHT22;42008;52.934;5.884;2022-07-10T06:03:34;15.10;24.90
56137;DHT22;42008;52.934;5.884;2022-07-10T06:06:00;15.90;5.70
56137;DHT22;42008;52.934;5.884;2022-07-10T06:08:26;15.60;1.00
56137;DHT22;42008;52.934;5.884;2022-07-10T06:10:52;15.20;1.00
56137;DHT22;42008;52.934;5.884;2022-07-10T06:13:18;15.40;1.00
56137;DHT22;42008;52.934;5.884;2022-07-10T06:15:43;15.50;1.00
56137;DHT22;42008;52.934;5.884;2022-07-10T06:18:09;15.40;1.00
56137;DHT22;42008;52.934;5.884;2022-07-10T06:20:34;15.70;1.00
56137;DHT22;42008;52.934;5.884;2022-07-10T06:23:00;16.10;1.00
56137;DHT22;42008;52.934;5.884;2022-07-10T06:25:26;16.20;1.00
56137;DHT22;42008;52.934;5.884;2022-07-10T06:27:51;15.90;1.00
56137;DHT22;42008;52.934;5.884;2022-07-10T06:30:17;15.80;1.00
56137;DHT22;42008;52.934;5.884;2022-07-10T06:32:42;15.30;1.00
56137;DHT22;42008;52.934;5.884;2022-07-10T06:35:10;15.00;3.80
56137;DHT22;42008;52.934;5.884;2022-07-10T06:37:36;15.40;40.30
56137;DHT22;42008;52.934;5.884;2022-07-10T06:40:01;14.90;60.30
56137;DHT22;42008;52.934;5.884;2022-07-10T06:42:27;15.90;85.90
56137;DHT22;42008;52.934;5.884;2022-07-10T06:44:52;15.30;99.90
56137;DHT22;42008;52.934;5.884;2022-07-10T06:47:19;14.80;99.90
56137;DHT22;42008;52.934;5.884;2022-07-10T06:50:07;15.60;99.90
56137;DHT22;42008;52.934;5.884;2022-07-10T06:52:34;14.30;99.90
56137;DHT22;42008;52.934;5.884;2022-07-10T06:55:00;15.30;99.90
56137;DHT22;42008;52.934;5.884;2022-07-10T06:57:26;15.10;99.90
56137;DHT22;42008;52.934;5.884;2022-07-10T06:59:52;15.30;99.90
56137;DHT22;42008;52.934;5.884;2022-07-10T07:02:18;14.30;99.90
56137;DHT22;42008;52.934;5.884;2022-07-10T07:04:45;15.90;99.90
56137;DHT22;42008;52.934;5.884;2022-07-10T07:07:14;14.10;99.90
56137;DHT22;42008;52.934;5.884;2022-07-10T07:09:40;14.60;99.90
56137;DHT22;42008;52.934;5.884;2022-07-10T07:12:06;15.60;99.90
56137;DHT22;42008;52.934;5.884;2022-07-10T07:14:32;16.00;99.90
56137;DHT22;42008;52.934;5.884;2022-07-10T07:16:58;15.00;99.90
56137;DHT22;42008;52.934;5.884;2022-07-10T07:19:35;15.70;99.90
56137;DHT22;42008;52.934;5.884;2022-07-10T07:22:20;15.40;99.90
56137;DHT22;42008;52.934;5.884;2022-07-10T07:25:05;15.30;99.90
56137;DHT22;42008;52.934;5.884;2022-07-10T07:27:33;14.80;99.90
56137;DHT22;42008;52.934;5.884;2022-07-10T07:30:07;15.60;99.90
56137;DHT22;42008;52.934;5.884;2022-07-10T07:32:33;14.80;99.90
56137;DHT22;42008;52.934;5.884;2022-07-10T07:35:00;15.50;99.90
56137;DHT22;42008;52.934;5.884;2022-07-10T07:40:09;15.80;93.40
56137;DHT22;42008;52.934;5.884;2022-07-10T07:42:35;16.80;65.80
56137;DHT22;42008;52.934;5.884;2022-07-10T07:45:00;15.70;44.50
56137;DHT22;42008;52.934;5.884;2022-07-10T07:47:26;15.70;1.00
56137;DHT22;42008;52.934;5.884;2022-07-10T07:49:52;16.30;1.00
56137;DHT22;42008;52.934;5.884;2022-07-10T07:52:18;15.80;1.00
56137;DHT22;42008;52.934;5.884;2022-07-10T07:54:43;17.30;1.00
56137;DHT22;42008;52.934;5.884;2022-07-10T07:57:09;16.00;1.00
56137;DHT22;42008;52.934;5.884;2022-07-10T07:59:34;17.20;1.00
56137;DHT22;42008;52.934;5.884;2022-07-10T08:02:00;17.30;1.00
56137;DHT22;42008;52.934;5.884;2022-07-10T08:04:26;17.40;1.00
56137;DHT22;42008;52.934;5.884;2022-07-10T08:06:51;16.00;1.00
56137;DHT22;42008;52.934;5.884;2022-07-10T08:09:19;15.90;1.00
56137;DHT22;42008;52.934;5.884;2022-07-10T08:11:46;16.90;1.00
56137;DHT22;42008;52.934;5.884;2022-07-10T08:14:12;15.80;1.00
56137;DHT22;42008;52.934;5.884;2022-07-10T08:16:38;15.90;1.00
56137;DHT22;42008;52.934;5.884;2022-07-10T08:19:03;15.90;1.00
56137;DHT22;42008;52.934;5.884;2022-07-10T08:21:29;15.90;1.00
56137;DHT22;42008;52.934;5.884;2022-07-10T08:23:55;17.10;1.00
56137;DHT22;42008;52.934;5.884;2022-07-10T08:26:21;15.60;1.00
56137;DHT22;42008;52.934;5.884;2022-07-10T08:28:47;16.70;1.00
56137;DHT22;42008;52.934;5.884;2022-07-10T08:31:12;17.60;1.00
56137;DHT22;42008;52.934;5.884;2022-07-10T08:33:38;15.80;1.00
56137;DHT22;42008;52.934;5.884;2022-07-10T08:36:04;17.30;1.00
56137;DHT22;42008;52.934;5.884;2022-07-10T08:38:30;16.60;1.00
56137;DHT22;42008;52.934;5.884;2022-07-10T08:40:56;17.00;1.00
56137;DHT22;42008;52.934;5.884;2022-07-10T08:43:23;17.20;1.00
56137;DHT22;42008;52.934;5.884;2022-07-10T08:45:51;18.60;1.00
56137;DHT22;42008;52.934;5.884;2022-07-10T08:48:23;19.50;1.00
56137;DHT22;42008;52.934;5.884;2022-07-10T08:50:54;17.10;1.00
56137;DHT22;42008;52.934;5.884;2022-07-10T08:53:30;17.70;1.00
56137;DHT22;42008;52.934;5.884;2022-07-10T08:55:56;18.30;1.00
56137;DHT22;42008;52.934;5.884;2022-07-10T08:58:22;17.80;1.00
56137;DHT22;42008;52.934;5.884;2022-07-10T09:00:48;16.80;1.00
56137;DHT22;42008;52.934;5.884;2022-07-10T09:03:14;18.10;1.00
56137;DHT22;42008;52.934;5.884;2022-07-10T09:05:40;18.20;1.00
56137;DHT22;42008;52.934;5.884;2022-07-10T09:08:30;18.10;1.00
56137;DHT22;42008;52.934;5.884;2022-07-10T09:11:18;18.00;1.00
56137;DHT22;42008;52.934;5.884;2022-07-10T09:13:51;17.90;1.00
56137;DHT22;42008;52.934;5.884;2022-07-10T09:16:25;19.10;1.00
56137;DHT22;42008;52.934;5.884;2022-07-10T09:18:51;18.00;1.00
56137;DHT22;42008;52.934;5.884;2022-07-10T09:21:17;17.90;1.00
56137;DHT22;42008;52.934;5.884;2022-07-10T09:23:43;17.70;1.00
56137;DHT22;42008;52.934;5.884;2022-07-10T09:26:08;19.00;1.00
56137;DHT22;42008;52.934;5.884;2022-07-10T09:28:34;17.90;1.00
56137;DHT22;42008;52.934;5.884;2022-07-10T09:30:59;16.00;1.00
56137;DHT22;42008;52.934;5.884;2022-07-10T09:33:26;17.60;1.00
56137;DHT22;42008;52.934;5.884;2022-07-10T09:36:11;16.20;1.00
56137;DHT22;42008;52.934;5.884;2022-07-10T09:41:30;16.90;1.00
56137;DHT22;42008;52.934;5.884;2022-07-10T09:44:00;17.80;1.00
56137;DHT22;42008;52.934;5.884;2022-07-10T09:46:37;17.10;1.00
56137;DHT22;42008;52.934;5.884;2022-07-10T09:49:12;18.10;1.00
56137;DHT22;42008;52.934;5.884;2022-07-10T09:51:42;17.80;1.00
56137;DHT22;42008;52.934;5.884;2022-07-10T09:54:09;17.10;1.00
56137;DHT22;42008;52.934;5.884;2022-07-10T09:56:43;17.20;1.00
56137;DHT22;42008;52.934;5.884;2022-07-10T09:59:19;16.10;1.00
56137;DHT22;42008;52.934;5.884;2022-07-10T10:01:50;16.90;1.00
56137;DHT22;42008;52.934;5.884;2022-07-10T10:04:17;17.50;1.00
56137;DHT22;42008;52.934;5.884;2022-07-10T10:06:46;17.90;1.00
56137;DHT22;42008;52.934;5.884;2022-07-10T10:09:18;17.50;1.00
56137;DHT22;42008;52.934;5.884;2022-07-10T10:11:47;17.90;1.00
56137;DHT22;42008;52.934;5.884;2022-07-10T10:14:15;18.90;1.00
56137;DHT22;42008;52.934;5.884;2022-07-10T10:16:44;18.10;1.00
56137;DHT22;42008;52.934;5.884;2022-07-10T10:19:12;18.20;1.00
56137;DHT22;42008;52.934;5.884;2022-07-10T10:21:57;17.40;1.00
56137;DHT22;42008;52.934;5.884;2022-07-10T10:24:23;17.20;1.00
56137;DHT22;42008;52.934;5.884;2022-07-10T10:26:50;19.70;1.00
56137;DHT22;42008;52.934;5.884;2022-07-10T10:29:16;18.10;1.00
56137;DHT22;42008;52.934;5.884;2022-07-10T10:31:42;18.40;1.00
56137;DHT22;42008;52.934;5.884;2022-07-10T10:34:09;18.00;1.00
56137;DHT22;42008;52.934;5.884;2022-07-10T10:39:18;17.50;1.00
56137;DHT22;42008;52.934;5.884;2022-07-10T10:41:54;16.20;1.00
56137;DHT22;42008;52.934;5.884;2022-07-10T10:44:21;15.60;81.00
56137;DHT22;42008;52.934;5.884;2022-07-10T10:49:20;15.40;98.70
56137;DHT22;42008;52.934;5.884;2022-07-10T10:52:00;15.60;86.80
56137;DHT22;42008;52.934;5.884;2022-07-10T10:54:30;17.40;26.80
56137;DHT22;42008;52.934;5.884;2022-07-10T10:57:16;15.90;1.00
56137;DHT22;42008;52.934;5.884;2022-07-10T10:59:53;17.30;1.00
56137;DHT22;42008;52.934;5.884;2022-07-10T11:02:28;17.50;1.00
56137;DHT22;42008;52.934;5.884;2022-07-10T11:07:57;17.90;1.00
56137;DHT22;42008;52.934;5.884;2022-07-10T11:13:16;18.70;1.00
56137;DHT22;42008;52.934;5.884;2022-07-10T11:15:46;17.90;1.00
56137;DHT22;42008;52.934;5.884;2022-07-10T11:18:15;18.80;1.00
56137;DHT22;42008;52.934;5.884;2022-07-10T11:20:43;19.10;1.00
56137;DHT22;42008;52.934;5.884;2022-07-10T11:23:42;17.60;1.00
56137;DHT22;42008;52.934;5.884;2022-07-10T11:26:24;17.20;1.00
56137;DHT22;42008;52.934;5.884;2022-07-10T11:29:04;17.20;1.00
56137;DHT22;42008;52.934;5.884;2022-07-10T11:31:33;18.00;1.00
56137;DHT22;42008;52.934;5.884;2022-07-10T11:34:10;17.90;1.00
56137;DHT22;42008;52.934;5.884;2022-07-10T11:36:39;18.40;1.00
56137;DHT22;42008;52.934;5.884;2022-07-10T11:39:09;18.50;1.00
56137;DHT22;42008;52.934;5.884;2022-07-10T11:41:45;19.90;1.00
56137;DHT22;42008;52.934;5.884;2022-07-10T11:44:15;18.50;1.00
56137;DHT22;42008;52.934;5.884;2022-07-10T11:46:42;19.90;1.00
56137;DHT22;42008;52.934;5.884;2022-07-10T11:49:10;18.30;1.00
56137;DHT22;42008;52.934;5.884;2022-07-10T11:51:38;18.30;1.00
56137;DHT22;42008;52.934;5.884;2022-07-10T11:54:08;18.20;1.00
56137;DHT22;42008;52.934;5.884;2022-07-10T11:56:38;17.60;1.00
56137;DHT22;42008;52.934;5.884;2022-07-10T11:59:11;18.30;1.00
56137;DHT22;42008;52.934;5.884;2022-07-10T12:01:44;17.60;1.00
56137;DHT22;42008;52.934;5.884;2022-07-10T12:04:11;17.30;1.00
56137;DHT22;42008;52.934;5.884;2022-07-10T12:06:39;17.90;1.00
56137;DHT22;42008;52.934;5.884;2022-07-10T12:09:09;18.40;1.00
56137;DHT22;42008;52.934;5.884;2022-07-10T12:11:36;18.10;1.00
56137;DHT22;42008;52.934;5.884;2022-07-10T12:14:16;19.50;1.00
56137;DHT22;42008;52.934;5.884;2022-07-10T12:16:49;18.50;1.00
56137;DHT22;42008;52.934;5.884;2022-07-10T12:19:20;18.00;1.00
56137;DHT22;42008;52.934;5.884;2022-07-10T12:21:47;17.60;1.00
56137;DHT22;42008;52.934;5.884;2022-07-10T12:24:15;18.10;1.00
56137;DHT22;42008;52.934;5.884;2022-07-10T12:26:43;17.80;1.00
56137;DHT22;42008;52.934;5.884;2022-07-10T12:29:20;17.80;1.00
56137;DHT22;42008;52.934;5.884;2022-07-10T12:31:47;18.10;1.00
56137;DHT22;42008;52.934;5.884;2022-07-10T12:34:13;18.40;1.00
56137;DHT22;42008;52.934;5.884;2022-07-10T12:36:52;18.10;1.00
56137;DHT22;42008;52.934;5.884;2022-07-10T12:39:20;19.20;1.00
56137;DHT22;42008;52.934;5.884;2022-07-10T12:42:13;17.90;1.00
56137;DHT22;42008;52.934;5.884;2022-07-10T12:44:41;18.10;1.00
56137;DHT22;42008;52.934;5.884;2022-07-10T12:47:18;18.50;1.00
56137;DHT22;42008;52.934;5.884;2022-07-10T12:49:48;18.50;1.00
56137;DHT22;42008;52.934;5.884;2022-07-10T12:52:26;18.70;1.00
56137;DHT22;42008;52.934;5.884;2022-07-10T13:00:23;19.20;1.00
56137;DHT22;42008;52.934;5.884;2022-07-10T13:02:56;18.40;1.00
56137;DHT22;42008;52.934;5.884;2022-07-10T13:05:37;18.40;1.00
56137;DHT22;42008;52.934;5.884;2022-07-10T13:08:21;20.20;1.00
56137;DHT22;42008;52.934;5.884;2022-07-10T13:10:54;19.70;1.00
56137;DHT22;42008;52.934;5.884;2022-07-10T13:13:20;18.50;1.00
56137;DHT22;42008;52.934;5.884;2022-07-10T13:15:47;18.70;1.00
56137;DHT22;42008;52.934;5.884;2022-07-10T13:20:42;20.50;1.00
56137;DHT22;42008;52.934;5.884;2022-07-10T13:23:08;20.30;1.00
56137;DHT22;42008;52.934;5.884;2022-07-10T13:25:34;20.60;1.00
56137;DHT22;42008;52.934;5.884;2022-07-10T13:27:59;20.10;1.00
56137;DHT22;42008;52.934;5.884;2022-07-10T13:30:25;20.30;1.00
56137;DHT22;42008;52.934;5.884;2022-07-10T13:32:51;20.60;1.00
56137;DHT22;42008;52.934;5.884;2022-07-10T13:35:16;20.10;1.00
56137;DHT22;42008;52.934;5.884;2022-07-10T13:37:42;20.60;1.00
56137;DHT22;42008;52.934;5.884;2022-07-10T13:40:08;20.40;1.00
56137;DHT22;42008;52.934;5.884;2022-07-10T13:42:33;20.30;1.00
56137;DHT22;42008;52.934;5.884;2022-07-10T13:44:59;21.00;1.00
56137;DHT22;42008;52.934;5.884;2022-07-10T13:47:25;20.70;1.00
56137;DHT22;42008;52.934;5.884;2022-07-10T13:49:51;20.60;1.00
56137;DHT22;42008;52.934;5.884;2022-07-10T13:52:16;20.70;1.00
56137;DHT22;42008;52.934;5.884;2022-07-10T13:54:42;20.90;1.00
56137;DHT22;42008;52.934;5.884;2022-07-10T13:57:07;21.50;1.00
56137;DHT22;42008;52.934;5.884;2022-07-10T13:59:33;21.50;1.00
56137;DHT22;42008;52.934;5.884;2022-07-10T14:01:59;21.50;1.00
56137;DHT22;42008;52.934;5.884;2022-07-10T14:04:24;21.10;1.00
56137;DHT22;42008;52.934;5.884;2022-07-10T14:06:50;21.90;1.00
56137;DHT22;42008;52.934;5.884;2022-07-10T14:09:15;21.20;1.00
56137;DHT22;42008;52.934;5.884;2022-07-10T14:11:41;20.90;1.00
56137;DHT22;42008;52.934;5.884;2022-07-10T14:14:09;21.00;1.00
56137;DHT22;42008;52.934;5.884;2022-07-10T14:16:36;21.20;1.00
56137;DHT22;42008;52.934;5.884;2022-07-10T14:19:02;20.60;1.00
56137;DHT22;42008;52.934;5.884;2022-07-10T14:21:27;21.10;1.00
56137;DHT22;42008;52.934;5.884;2022-07-10T14:23:54;21.20;1.00
56137;DHT22;42008;52.934;5.884;2022-07-10T14:26:21;20.70;1.00
56137;DHT22;42008;52.934;5.884;2022-07-10T14:28:48;20.90;1.00
56137;DHT22;42008;52.934;5.884;2022-07-10T14:31:14;20.50;1.00
56137;DHT22;42008;52.934;5.884;2022-07-10T14:33:40;20.00;1.00
56137;DHT22;42008;52.934;5.884;2022-07-10T14:36:06;20.40;1.00
56137;DHT22;42008;52.934;5.884;2022-07-10T14:38:32;20.30;1.00
56137;DHT22;42008;52.934;5.884;2022-07-10T14:40:58;21.40;1.00
56137;DHT22;42008;52.934;5.884;2022-07-10T14:43:24;21.40;1.00
56137;DHT22;42008;52.934;5.884;2022-07-10T14:45:50;20.90;1.00
56137;DHT22;42008;52.934;5.884;2022-07-10T14:48:15;20.80;1.00
56137;DHT22;42008;52.934;5.884;2022-07-10T14:50:41;20.90;1.00
56137;DHT22;42008;52.934;5.884;2022-07-10T14:53:07;20.40;1.00
56137;DHT22;42008;52.934;5.884;2022-07-10T14:55:34;20.70;1.00
56137;DHT22;42008;52.934;5.884;2022-07-10T14:58:00;20.20;1.00
56137;DHT22;42008;52.934;5.884;2022-07-10T15:00:26;20.30;1.00
56137;DHT22;42008;52.934;5.884;2022-07-10T15:02:51;20.30;1.00
56137;DHT22;42008;52.934;5.884;2022-07-10T15:05:17;19.00;1.00
56137;DHT22;42008;52.934;5.884;2022-07-10T15:07:42;20.50;1.00
56137;DHT22;42008;52.934;5.884;2022-07-10T15:10:08;20.80;1.00
56137;DHT22;42008;52.934;5.884;2022-07-10T15:12:35;19.80;1.00
56137;DHT22;42008;52.934;5.884;2022-07-10T15:15:03;20.70;1.00
56137;DHT22;42008;52.934;5.884;2022-07-10T15:17:29;20.00;1.00
56137;DHT22;42008;52.934;5.884;2022-07-10T15:19:54;20.20;1.00
56137;DHT22;42008;52.934;5.884;2022-07-10T15:22:20;20.20;1.00
56137;DHT22;42008;52.934;5.884;2022-07-10T15:24:46;20.60;1.00
56137;DHT22;42008;52.934;5.884;2022-07-10T15:27:14;20.60;1.00
56137;DHT22;42008;52.934;5.884;2022-07-10T15:29:40;19.90;1.00
56137;DHT22;42008;52.934;5.884;2022-07-10T15:32:06;18.70;1.00
56137;DHT22;42008;52.934;5.884;2022-07-10T15:34:31;19.80;1.00
56137;DHT22;42008;52.934;5.884;2022-07-10T15:36:57;18.60;1.00
56137;DHT22;42008;52.934;5.884;2022-07-10T15:39:23;18.60;1.00
56137;DHT22;42008;52.934;5.884;2022-07-10T15:41:49;20.40;1.00
56137;DHT22;42008;52.934;5.884;2022-07-10T15:44:15;18.70;1.00
56137;DHT22;42008;52.934;5.884;2022-07-10T15:46:41;20.00;1.00
56137;DHT22;42008;52.934;5.884;2022-07-10T15:49:06;18.70;1.00
56137;DHT22;42008;52.934;5.884;2022-07-10T15:51:33;18.80;1.00
56137;DHT22;42008;52.934;5.884;2022-07-10T15:53:58;20.30;1.00
56137;DHT22;42008;52.934;5.884;2022-07-10T15:56:24;18.70;1.00
56137;DHT22;42008;52.934;5.884;2022-07-10T15:58:49;20.30;1.00
56137;DHT22;42008;52.934;5.884;2022-07-10T16:01:15;19.80;1.00
56137;DHT22;42008;52.934;5.884;2022-07-10T16:03:44;19.50;1.00
56137;DHT22;42008;52.934;5.884;2022-07-10T16:06:11;18.40;1.00
56137;DHT22;42008;52.934;5.884;2022-07-10T16:08:37;19.90;1.00